createdAt,value
2023-04-14T00:01:49.033Z,99096.90
2023-04-14T00:04:17.412Z,99099.81
2023-04-14T00:06:45.348Z,99096.27
2023-04-14T00:09:15.054Z,99098.17
2023-04-14T00:11:42.853Z,99103.88
2023-04-14T00:14:10.762Z,99103.45
2023-04-14T00:16:39.759Z,99106.05
2023-04-14T00:19:07.991Z,99102.88
2023-04-14T00:21:36.110Z,99104.19
2023-04-14T00:24:11.078Z,99104.88
2023-04-14T00:26:39.714Z,99105.23
2023-04-14T00:29:07.498Z,99104.48
2023-04-14T00:31:35.955Z,99106.88
2023-04-14T00:34:04.617Z,99102.10
2023-04-14T00:36:33.405Z,99096.03
2023-04-14T00:39:04.342Z,99096.15
2023-04-14T00:41:35.446Z,99099.20
2023-04-14T00:44:03.294Z,99095.16
2023-04-14T00:46:31.609Z,99093.10
2023-04-14T00:48:59.809Z,99094.73
2023-04-14T00:51:27.937Z,99091.76
2023-04-14T00:53:57.143Z,99092.58
2023-04-14T00:56:26.450Z,99090.70
2023-04-14T00:58:54.297Z,99091.86
2023-04-14T01:01:22.340Z,99094.19
2023-04-14T01:03:52.319Z,99097.89
2023-04-14T01:06:21.026Z,99101.27
2023-04-14T01:08:49.501Z,99099.04
2023-04-14T01:11:23.102Z,99095.65
2023-04-14T01:14:03.704Z,99093.04
2023-04-14T01:16:35.540Z,99097.02
2023-04-14T01:19:09.123Z,99098.95
2023-04-14T01:21:38.600Z,99101.70
2023-04-14T01:24:06.739Z,99107.63
2023-04-14T01:26:34.786Z,99107.48
2023-04-14T01:29:03.815Z,99114.16
2023-04-14T01:31:34.540Z,99113.54
2023-04-14T01:34:05.917Z,99111.52
2023-04-14T01:36:37.727Z,99115.68
2023-04-14T01:39:06.930Z,99113.56
2023-04-14T01:41:37.533Z,99112.41
2023-04-14T01:44:05.560Z,99114.65
2023-04-14T01:46:35.383Z,99113.67
2023-04-14T01:49:03.541Z,99117.52
2023-04-14T01:51:33.370Z,99116.17
2023-04-14T01:54:01.567Z,99114.79
2023-04-14T01:56:29.713Z,99112.94
2023-04-14T01:58:58.130Z,99116.25
2023-04-14T02:01:26.584Z,99118.77
2023-04-14T02:03:57.887Z,99122.17
2023-04-14T02:06:27.511Z,99123.73
2023-04-14T02:08:55.971Z,99127.11
2023-04-14T02:11:23.879Z,99127.61
2023-04-14T02:13:51.709Z,99126.95
2023-04-14T02:16:19.982Z,99124.16
2023-04-14T02:18:47.944Z,99123.95
2023-04-14T02:21:18.567Z,99128.84
2023-04-14T02:23:47.970Z,99130.83
2023-04-14T02:26:16.228Z,99132.95
2023-04-14T02:28:49.232Z,99135.00
2023-04-14T02:31:21.507Z,99137.52
2023-04-14T02:33:52.336Z,99136.88
2023-04-14T02:36:22.845Z,99141.08
2023-04-14T02:38:55.558Z,99142.17
2023-04-14T02:41:28.167Z,99144.32
2023-04-14T02:44:00.853Z,99148.56
2023-04-14T02:46:29.655Z,99151.91
2023-04-14T02:48:58.062Z,99152.73
2023-04-14T02:51:25.941Z,99156.88
2023-04-14T02:53:54.083Z,99159.07
2023-04-14T02:56:28.992Z,99164.77
2023-04-14T02:58:57.909Z,99169.11
2023-04-14T03:01:26.285Z,99165.80
2023-04-14T03:03:56.517Z,99167.30
2023-04-14T03:06:24.541Z,99165.94
2023-04-14T03:08:52.375Z,99165.13
2023-04-14T03:11:21.369Z,99170.36
2023-04-14T03:13:50.641Z,99171.78
2023-04-14T03:16:19.765Z,99170.55
2023-04-14T03:18:50.658Z,99169.13
2023-04-14T03:21:19.299Z,99164.94
2023-04-14T03:23:48.451Z,99168.33
2023-04-14T03:26:18.547Z,99165.40
2023-04-14T03:28:48.532Z,99167.84
2023-04-14T03:31:18.994Z,99167.85
2023-04-14T03:33:55.759Z,99169.95
2023-04-14T03:36:23.892Z,99171.94
2023-04-14T03:38:55.443Z,99172.30
2023-04-14T03:41:23.302Z,99177.58
2023-04-14T03:43:54.705Z,99178.38
2023-04-14T03:46:28.488Z,99179.54
2023-04-14T03:48:58.293Z,99183.45
2023-04-14T03:51:27.623Z,99185.39
2023-04-14T03:53:58.140Z,99192.35
2023-04-14T03:56:26.421Z,99191.18
2023-04-14T03:58:55.428Z,99191.82
2023-04-14T04:01:25.775Z,99194.98
2023-04-14T04:03:56.777Z,99197.48
2023-04-14T04:06:24.928Z,99199.38
2023-04-14T04:08:52.866Z,99200.35
2023-04-14T04:11:20.904Z,99200.63
2023-04-14T04:13:49.273Z,99202.40
2023-04-14T04:16:19.407Z,99206.55
2023-04-14T04:18:48.464Z,99203.55
2023-04-14T04:21:17.563Z,99207.33
2023-04-14T04:23:50.585Z,99211.67
2023-04-14T04:26:30.068Z,99211.95
2023-04-14T04:29:08.361Z,99214.81
2023-04-14T04:31:36.734Z,99218.90
2023-04-14T04:34:04.774Z,99218.47
2023-04-14T04:36:39.596Z,99224.92
2023-04-14T04:39:07.697Z,99226.14
2023-04-14T04:41:38.821Z,99224.62
2023-04-14T04:44:07.733Z,99227.42
2023-04-14T04:46:35.998Z,99231.96
2023-04-14T04:49:05.812Z,99234.24
2023-04-14T04:51:33.844Z,99237.39
2023-04-14T04:54:01.614Z,99242.69
2023-04-14T04:56:29.663Z,99246.27
2023-04-14T04:58:59.195Z,99253.32
2023-04-14T05:01:27.479Z,99254.32
2023-04-14T05:03:56.060Z,99257.97
2023-04-14T05:06:24.130Z,99261.93
2023-04-14T05:08:57.914Z,99263.48
2023-04-14T05:11:27.156Z,99263.02
2023-04-14T05:13:56.298Z,99262.80
2023-04-14T05:16:24.824Z,99265.54
2023-04-14T05:18:57.874Z,99262.98
2023-04-14T05:21:25.941Z,99263.79
2023-04-14T05:23:53.685Z,99266.79
2023-04-14T05:26:44.525Z,99273.22
2023-04-14T05:29:10.259Z,99278.02
2023-04-14T05:31:38.232Z,99273.27
2023-04-14T05:34:06.668Z,99276.13
2023-04-14T05:36:34.934Z,99282.03
2023-04-14T05:39:03.680Z,99281.45
2023-04-14T05:41:33.587Z,99285.14
2023-04-14T05:44:03.569Z,99285.82
2023-04-14T05:46:32.419Z,99284.64
2023-04-14T05:49:01.961Z,99283.98
2023-04-14T05:51:31.361Z,99284.69
2023-04-14T05:54:01.281Z,99289.45
2023-04-14T05:56:29.616Z,99290.88
2023-04-14T05:58:58.069Z,99290.55
2023-04-14T06:01:27.752Z,99293.13
2023-04-14T06:03:57.495Z,99295.93
2023-04-14T06:06:26.421Z,99299.36
2023-04-14T06:08:54.230Z,99302.68
2023-04-14T06:11:22.486Z,99302.76
2023-04-14T06:13:50.360Z,99304.36
2023-04-14T06:16:18.205Z,99303.39
2023-04-14T06:18:46.210Z,99302.52
2023-04-14T06:21:14.122Z,99308.34
2023-04-14T06:23:42.128Z,99308.67
2023-04-14T06:26:09.952Z,99312.52
2023-04-14T06:28:37.994Z,99322.77
2023-04-14T06:31:06.537Z,99322.00
2023-04-14T06:33:34.297Z,99318.61
2023-04-14T06:36:02.936Z,99319.89
2023-04-14T06:38:31.339Z,99325.64
2023-04-14T06:40:59.385Z,99323.86
2023-04-14T06:43:31.124Z,99328.23
2023-04-14T06:46:04.087Z,99328.01
2023-04-14T06:48:32.340Z,99328.63
2023-04-14T06:51:01.041Z,99330.17
2023-04-14T06:53:29.127Z,99328.33
2023-04-14T06:56:00.567Z,99331.57
2023-04-14T06:58:31.037Z,99337.84
2023-04-14T07:01:01.685Z,99340.65
2023-04-14T07:03:30.905Z,99339.31
2023-04-14T07:06:02.465Z,99343.85
2023-04-14T07:08:32.872Z,99346.36
2023-04-14T07:11:01.909Z,99347.04
2023-04-14T07:13:30.345Z,99351.36
2023-04-14T07:15:59.555Z,99351.95
2023-04-14T07:18:29.518Z,99359.81
2023-04-14T07:20:57.444Z,99356.00
2023-04-14T07:23:27.481Z,99357.73
2023-04-14T07:25:59.181Z,99363.55
2023-04-14T07:28:26.957Z,99361.34
2023-04-14T07:30:55.181Z,99361.95
2023-04-14T07:33:23.791Z,99363.55
2023-04-14T07:36:02.298Z,99365.45
2023-04-14T07:38:33.588Z,99364.02
2023-04-14T07:41:03.684Z,99365.70
2023-04-14T07:43:35.620Z,99367.64
2023-04-14T07:46:05.467Z,99371.33
2023-04-14T07:48:34.755Z,99372.52
2023-04-14T07:51:09.077Z,99370.89
2023-04-14T07:53:43.412Z,99371.12
2023-04-14T07:56:11.677Z,99371.41
2023-04-14T07:58:40.220Z,99371.44
2023-04-14T08:01:08.363Z,99375.95
2023-04-14T08:03:42.076Z,99375.18
2023-04-14T08:06:11.975Z,99375.17
2023-04-14T08:08:40.444Z,99379.90
2023-04-14T08:11:08.415Z,99380.83
2023-04-14T08:13:36.167Z,99383.65
2023-04-14T08:16:07.862Z,99385.91
2023-04-14T08:18:36.781Z,99384.97
2023-04-14T08:21:05.686Z,99382.21
2023-04-14T08:23:34.210Z,99382.02
2023-04-14T08:26:02.688Z,99376.79
2023-04-14T08:28:30.778Z,99381.50
2023-04-14T08:30:58.675Z,99377.70
2023-04-14T08:33:27.198Z,99376.83
2023-04-14T08:35:59.866Z,99374.73
2023-04-14T08:38:30.411Z,99367.44
2023-04-14T08:41:01.048Z,99366.95
2023-04-14T08:43:29.116Z,99364.58
2023-04-14T08:46:00.410Z,99360.02
2023-04-14T08:48:30.854Z,99362.94
2023-04-14T08:51:04.598Z,99363.92
2023-04-14T08:53:42.727Z,99365.99
2023-04-14T08:56:14.337Z,99368.69
2023-04-14T08:58:42.113Z,99371.80
2023-04-14T09:01:09.903Z,99373.82
2023-04-14T09:03:40.242Z,99373.01
2023-04-14T09:06:08.681Z,99377.13
2023-04-14T09:08:37.902Z,99381.13
2023-04-14T09:11:06.169Z,99386.56
2023-04-14T09:13:33.990Z,99390.16
2023-04-14T09:16:01.870Z,99394.48
2023-04-14T09:18:34.356Z,99396.29
2023-04-14T09:21:29.780Z,99396.23
2023-04-14T09:23:51.830Z,99395.77
2023-04-14T09:26:19.843Z,99396.11
2023-04-14T09:28:47.714Z,99396.49
2023-04-14T09:31:18.633Z,99394.25
2023-04-14T09:33:50.512Z,99395.78
2023-04-14T09:36:22.600Z,99395.05
2023-04-14T09:38:51.315Z,99399.71
2023-04-14T09:41:19.913Z,99400.38
2023-04-14T09:43:48.112Z,99399.91
2023-04-14T09:46:15.997Z,99396.72
2023-04-14T09:48:51.098Z,99397.13
2023-04-14T09:51:21.650Z,99398.52
2023-04-14T09:53:50.373Z,99395.67
2023-04-14T09:56:18.177Z,99397.20
2023-04-14T09:58:47.142Z,99400.98
2023-04-14T10:01:16.370Z,99402.30
2023-04-14T10:03:47.178Z,99406.17
2023-04-14T10:06:19.222Z,99410.47
2023-04-14T10:08:51.626Z,99415.72
2023-04-14T10:11:23.488Z,99417.72
2023-04-14T10:13:55.832Z,99421.51
2023-04-14T10:16:24.295Z,99422.90
2023-04-14T10:18:52.638Z,99423.72
2023-04-14T10:21:23.150Z,99427.13
2023-04-14T10:23:51.488Z,99426.56
2023-04-14T10:26:19.374Z,99428.39
2023-04-14T10:28:51.356Z,99426.42
2023-04-14T10:31:20.355Z,99422.82
2023-04-14T10:33:48.870Z,99424.98
2023-04-14T10:36:26.648Z,99426.32
2023-04-14T10:38:58.258Z,99431.00
2023-04-14T10:41:45.891Z,99430.96
2023-04-14T10:44:23.884Z,99436.77
2023-04-14T10:46:52.394Z,99434.41
2023-04-14T10:49:24.600Z,99429.52
2023-04-14T10:51:52.690Z,99430.64
2023-04-14T10:54:21.184Z,99430.89
2023-04-14T10:57:08.325Z,99429.44
2023-04-14T10:59:36.118Z,99435.29
2023-04-14T11:02:04.601Z,99438.03
2023-04-14T11:04:32.678Z,99441.46
2023-04-14T11:07:08.654Z,99446.13
2023-04-14T11:09:39.092Z,99454.29
2023-04-14T11:12:31.695Z,99455.05
2023-04-14T11:15:05.348Z,99457.77
2023-04-14T11:17:37.456Z,99461.45
2023-04-14T11:20:14.614Z,99467.52
2023-04-14T11:22:47.782Z,99468.73
2023-04-14T11:25:17.023Z,99463.50
2023-04-14T11:27:45.216Z,99465.92
2023-04-14T11:30:17.241Z,99468.63
2023-04-14T11:32:50.400Z,99468.84
2023-04-14T11:35:18.308Z,99466.69
2023-04-14T11:37:47.790Z,99469.94
2023-04-14T11:40:16.671Z,99467.83
2023-04-14T11:42:46.667Z,99467.36
2023-04-14T11:45:18.035Z,99463.36
2023-04-14T11:47:59.244Z,99463.04
2023-04-14T11:50:27.894Z,99463.20
2023-04-14T11:52:59.413Z,99461.39
2023-04-14T11:55:27.724Z,99456.83
2023-04-14T11:57:55.916Z,99452.98
2023-04-14T12:00:27.660Z,99453.63
2023-04-14T12:03:15.428Z,99456.32
2023-04-14T12:05:43.805Z,99454.21
2023-04-14T12:08:12.704Z,99459.95
2023-04-14T12:10:42.021Z,99458.15
2023-04-14T12:13:10.466Z,99459.02
2023-04-14T12:15:39.344Z,99456.56
2023-04-14T12:18:08.940Z,99455.91
2023-04-14T12:20:56.350Z,99453.61
2023-04-14T12:23:25.694Z,99456.84
2023-04-14T12:25:56.150Z,99455.64
2023-04-14T12:28:25.023Z,99457.56
2023-04-14T12:30:54.303Z,99458.11
2023-04-14T12:33:22.742Z,99450.89
2023-04-14T12:35:51.195Z,99449.24
2023-04-14T12:38:19.160Z,99449.42
2023-04-14T12:40:48.448Z,99451.02
2023-04-14T12:43:16.861Z,99451.48
2023-04-14T12:45:51.175Z,99452.41
2023-04-14T12:48:20.012Z,99458.05
2023-04-14T12:50:47.782Z,99456.56
2023-04-14T12:53:22.690Z,99455.38
2023-04-14T12:56:07.247Z,99455.17
2023-04-14T12:58:37.872Z,99455.02
2023-04-14T13:01:09.347Z,99454.55
2023-04-14T13:03:50.378Z,99460.11
2023-04-14T13:06:19.971Z,99456.27
2023-04-14T13:08:48.892Z,99456.41
2023-04-14T13:11:17.257Z,99460.89
2023-04-14T13:13:53.469Z,99461.05
2023-04-14T13:16:22.113Z,99455.80
2023-04-14T13:18:50.505Z,99454.05
2023-04-14T13:21:22.783Z,99456.02
2023-04-14T13:23:51.297Z,99455.51
2023-04-14T13:26:19.234Z,99461.77
2023-04-14T13:28:51.631Z,99466.19
2023-04-14T13:31:20.728Z,99461.98
2023-04-14T13:33:48.838Z,99462.23
2023-04-14T13:36:16.687Z,99458.16
2023-04-14T13:38:47.333Z,99455.90
2023-04-14T13:41:15.788Z,99458.23
2023-04-14T13:43:45.036Z,99459.45
2023-04-14T13:46:13.313Z,99462.23
2023-04-14T13:48:43.030Z,99466.21
2023-04-14T13:51:10.746Z,99467.06
2023-04-14T13:53:39.388Z,99468.14
2023-04-14T13:56:07.620Z,99469.13
2023-04-14T13:58:37.140Z,99466.75
2023-04-14T14:01:10.624Z,99467.44
2023-04-14T14:03:43.766Z,99465.78
2023-04-14T14:06:11.934Z,99466.23
2023-04-14T14:08:42.166Z,99474.52
2023-04-14T14:11:16.120Z,99476.33
2023-04-14T14:13:44.313Z,99480.61
2023-04-14T14:16:13.179Z,99480.70
2023-04-14T14:18:47.337Z,99478.39
2023-04-14T14:21:15.659Z,99478.79
2023-04-14T14:23:43.364Z,99480.48
2023-04-14T14:26:12.037Z,99484.73
2023-04-14T14:28:40.447Z,99486.19
2023-04-14T14:31:08.311Z,99489.67
2023-04-14T14:33:38.442Z,99489.54
2023-04-14T14:36:06.613Z,99489.98
2023-04-14T14:38:37.301Z,99493.78
2023-04-14T14:41:05.557Z,99497.95
2023-04-14T14:43:33.414Z,99498.48
2023-04-14T14:46:04.645Z,99500.89
2023-04-14T14:48:33.244Z,99501.94
2023-04-14T14:51:01.602Z,99503.44
2023-04-14T14:53:32.409Z,99509.45
2023-04-14T14:56:00.641Z,99508.51
2023-04-14T14:58:28.520Z,99513.80
2023-04-14T15:00:59.019Z,99513.42
2023-04-14T15:03:28.929Z,99515.05
2023-04-14T15:05:56.919Z,99516.23
2023-04-14T15:08:24.775Z,99516.84
2023-04-14T15:10:53.545Z,99522.48
2023-04-14T15:13:23.306Z,99527.30
2023-04-14T15:15:51.117Z,99530.80
2023-04-14T15:18:21.154Z,99531.60
2023-04-14T15:20:53.045Z,99532.77
2023-04-14T15:23:20.830Z,99536.66
2023-04-14T15:25:48.794Z,99541.42
2023-04-14T15:28:18.050Z,99540.40
2023-04-14T15:30:46.037Z,99543.39
2023-04-14T15:33:14.577Z,99548.45
2023-04-14T15:35:51.094Z,99546.42
2023-04-14T15:38:19.927Z,99549.92
2023-04-14T15:40:48.476Z,99554.59
2023-04-14T15:43:18.198Z,99555.39
2023-04-14T15:45:46.222Z,99558.69
2023-04-14T15:48:14.136Z,99561.86
2023-04-14T15:50:44.591Z,99564.60
2023-04-14T15:53:13.575Z,99569.05
2023-04-14T15:55:41.466Z,99571.63
2023-04-14T15:58:11.694Z,99574.98
2023-04-14T16:00:39.727Z,99576.87
2023-04-14T16:03:07.903Z,99577.73
2023-04-14T16:05:41.667Z,99580.31
2023-04-14T16:08:09.548Z,99585.48
2023-04-14T16:10:40.848Z,99591.70
2023-04-14T16:13:22.899Z,99592.89
2023-04-14T16:15:52.493Z,99596.58
2023-04-14T16:18:20.377Z,99595.48
2023-04-14T16:20:50.292Z,99600.73
2023-04-14T16:23:18.719Z,99600.73
2023-04-14T16:25:49.943Z,99605.52
2023-04-14T16:28:18.136Z,99608.68
2023-04-14T16:30:46.414Z,99611.23
2023-04-14T16:33:22.335Z,99610.46
2023-04-14T16:35:50.070Z,99612.70
2023-04-14T16:38:21.366Z,99617.67
2023-04-14T16:40:58.694Z,99620.34
2023-04-14T16:43:27.921Z,99620.02
2023-04-14T16:46:01.219Z,99619.02
2023-04-14T16:48:29.647Z,99622.94
2023-04-14T16:51:06.080Z,99624.00
2023-04-14T16:53:34.852Z,99624.05
2023-04-14T16:56:04.368Z,99631.38
2023-04-14T16:58:34.161Z,99635.97
2023-04-14T17:01:02.346Z,99637.02
2023-04-14T17:03:30.760Z,99639.66
2023-04-14T17:05:59.227Z,99643.29
2023-04-14T17:08:28.209Z,99647.02
2023-04-14T17:10:56.879Z,99652.92
2023-04-14T17:13:25.305Z,99652.82
2023-04-14T17:16:06.122Z,99661.65
2023-04-14T17:18:37.030Z,99663.61
2023-04-14T17:21:05.707Z,99663.45
2023-04-14T17:23:37.058Z,99666.55
2023-04-14T17:26:05.733Z,99666.21
2023-04-14T17:28:34.916Z,99671.58
2023-04-14T17:31:05.126Z,99675.80
2023-04-14T17:33:33.930Z,99678.95
2023-04-14T17:36:02.190Z,99682.58
2023-04-14T17:38:35.047Z,99682.08
2023-04-14T17:41:04.943Z,99684.42
2023-04-14T17:43:33.302Z,99683.84
2023-04-14T17:46:01.707Z,99684.52
2023-04-14T17:48:29.828Z,99686.88
2023-04-14T17:50:58.650Z,99689.86
2023-04-14T17:53:27.873Z,99689.34
2023-04-14T17:55:56.391Z,99692.11
2023-04-14T17:58:24.286Z,99690.05
2023-04-14T18:00:52.842Z,99692.73
2023-04-14T18:03:21.104Z,99696.39
2023-04-14T18:05:49.158Z,99695.45
2023-04-14T18:08:18.170Z,99702.06
2023-04-14T18:10:46.671Z,99698.84
2023-04-14T18:13:14.660Z,99698.69
2023-04-14T18:15:42.776Z,99703.73
2023-04-14T18:18:13.351Z,99704.85
2023-04-14T18:20:44.824Z,99700.45
2023-04-14T18:23:12.964Z,99699.02
2023-04-14T18:28:34.524Z,99699.75
2023-04-14T18:31:04.630Z,99693.33
2023-04-14T18:33:32.990Z,99692.77
2023-04-14T18:36:02.593Z,99688.11
2023-04-14T18:38:30.876Z,99688.89
2023-04-14T18:41:03.721Z,99687.77
2023-04-14T18:43:32.823Z,99690.98
2023-04-14T18:46:01.136Z,99692.23
2023-04-14T18:48:34.274Z,99693.08
2023-04-14T18:51:06.540Z,99691.49
2023-04-14T18:53:35.478Z,99687.86
2023-04-14T18:56:03.943Z,99686.02
2023-04-14T18:58:37.451Z,99687.94
2023-04-14T19:01:06.579Z,99692.14
2023-04-14T19:03:36.741Z,99689.98
2023-04-14T19:06:05.041Z,99685.84
2023-04-14T19:08:32.913Z,99691.85
2023-04-14T19:11:05.508Z,99689.88
2023-04-14T19:13:33.384Z,99696.30
2023-04-14T19:16:08.902Z,99697.58
2023-04-14T19:18:36.894Z,99698.66
2023-04-14T19:21:04.689Z,99695.59
2023-04-14T19:23:33.712Z,99697.88
2023-04-14T19:26:11.162Z,99702.34
2023-04-14T19:28:40.428Z,99701.83
2023-04-14T19:31:08.610Z,99702.73
2023-04-14T19:33:36.629Z,99704.35
2023-04-14T19:36:11.847Z,99702.75
2023-04-14T19:38:39.812Z,99700.27
2023-04-14T19:41:08.985Z,99700.39
2023-04-14T19:43:38.825Z,99698.25
2023-04-14T19:46:08.130Z,99693.05
2023-04-14T19:48:36.837Z,99687.45
2023-04-14T19:51:05.315Z,99681.66
2023-04-14T19:53:33.102Z,99681.21
2023-04-14T19:56:02.206Z,99687.58
2023-04-14T19:58:31.335Z,99686.97
2023-04-14T20:01:01.877Z,99689.91
2023-04-14T20:03:34.681Z,99693.94
2023-04-14T20:06:03.330Z,99696.52
2023-04-14T20:08:32.444Z,99702.31
2023-04-14T20:11:01.612Z,99707.33
2023-04-14T20:13:32.136Z,99706.47
2023-04-14T20:16:01.545Z,99702.66
2023-04-14T20:18:33.944Z,99706.86
2023-04-14T20:21:02.526Z,99708.28
2023-04-14T20:23:31.582Z,99712.70
2023-04-14T20:26:06.436Z,99712.21
2023-04-14T20:28:34.431Z,99712.55
2023-04-14T20:31:03.428Z,99715.02
2023-04-14T20:33:33.626Z,99723.41
2023-04-14T20:36:01.896Z,99725.11
2023-04-14T20:38:29.959Z,99728.12
2023-04-14T20:41:01.101Z,99734.47
2023-04-14T20:43:34.273Z,99738.45
2023-04-14T20:46:03.917Z,99742.48
2023-04-14T20:48:35.170Z,99742.79
2023-04-14T20:51:03.592Z,99747.39
2023-04-14T20:53:31.430Z,99751.70
2023-04-14T20:56:01.325Z,99754.79
2023-04-14T20:58:29.912Z,99756.64
2023-04-14T21:00:58.135Z,99758.88
2023-04-14T21:03:28.645Z,99764.80
2023-04-14T21:05:57.692Z,99764.02
2023-04-14T21:08:27.384Z,99766.88
2023-04-14T21:11:15.655Z,99769.73
2023-04-14T21:15:31.420Z,99775.06
2023-04-14T21:16:32.437Z,99775.63
2023-04-14T21:19:01.600Z,99777.14
2023-04-14T21:21:34.725Z,99788.63
2023-04-14T21:24:02.710Z,99790.51
2023-04-14T21:26:30.840Z,99796.05
2023-04-14T21:28:58.779Z,99799.23
2023-04-14T21:31:27.389Z,99812.40
2023-04-14T21:33:55.822Z,99821.58
2023-04-14T21:36:24.688Z,99823.04
2023-04-14T21:38:52.970Z,99827.00
2023-04-14T21:41:21.058Z,99836.98
2023-04-14T21:43:49.026Z,99842.40
2023-04-14T21:46:16.981Z,99840.78
2023-04-14T21:48:45.223Z,99844.58
2023-04-14T21:51:13.541Z,99843.13
2023-04-14T21:53:42.121Z,99844.52
2023-04-14T21:56:12.943Z,99844.14
2023-04-14T21:58:42.158Z,99849.70
2023-04-14T22:01:10.867Z,99849.38
2023-04-14T22:03:41.043Z,99855.49
2023-04-14T22:06:12.183Z,99856.25
2023-04-14T22:08:43.514Z,99859.77
2023-04-14T22:11:11.458Z,99862.81
2023-04-14T22:13:39.441Z,99860.64
2023-04-14T22:16:11.519Z,99861.83
2023-04-14T22:18:39.557Z,99864.48
2023-04-14T22:21:09.728Z,99865.48
2023-04-14T22:23:40.173Z,99867.77
2023-04-14T22:26:10.743Z,99867.11
2023-04-14T22:28:39.721Z,99869.02
2023-04-14T22:31:07.910Z,99870.09
2023-04-14T22:33:38.594Z,99870.34
2023-04-14T22:36:07.591Z,99871.34
2023-04-14T22:38:35.566Z,99873.55
2023-04-14T22:41:04.462Z,99872.88
2023-04-14T22:43:32.982Z,99874.21
2023-04-14T22:46:01.186Z,99873.98
2023-04-14T22:48:29.266Z,99877.63
2023-04-14T22:50:57.458Z,99878.45
2023-04-14T22:53:26.636Z,99876.70
2023-04-14T22:55:54.823Z,99879.35
2023-04-14T22:58:24.197Z,99878.64
2023-04-14T23:00:54.320Z,99879.14
2023-04-14T23:03:22.783Z,99875.06
2023-04-14T23:05:52.020Z,99873.44
2023-04-14T23:08:22.171Z,99872.08
2023-04-14T23:10:50.665Z,99871.90
2023-04-14T23:13:18.472Z,99867.65
2023-04-14T23:15:48.283Z,99868.40
2023-04-14T23:18:20.715Z,99865.75
2023-04-14T23:20:48.672Z,99859.02
2023-04-14T23:23:16.570Z,99853.64
2023-04-14T23:25:49.718Z,99853.44
2023-04-14T23:28:19.012Z,99846.78
2023-04-14T23:30:46.844Z,99841.98
2023-04-14T23:33:15.160Z,99839.66
2023-04-14T23:35:45.349Z,99833.40
2023-04-14T23:38:13.969Z,99834.19
2023-04-14T23:40:41.791Z,99841.69
2023-04-14T23:43:10.668Z,99847.98
2023-04-14T23:45:38.754Z,99850.84
2023-04-14T23:48:06.710Z,99852.59
2023-04-14T23:50:59.690Z,99853.90
2023-04-14T23:53:25.460Z,99846.40
2023-04-14T23:55:53.637Z,99841.18
2023-04-14T23:58:26.674Z,99835.59
